Terminal Aerodrome Forecast
Issued by NWS Portland, ME

Home | Current Version | Previous Version | Text Only | Print | Product List | Glossary On
Versions: 1 2 3 4 5 6 7 8 9 10 11 12 13 14 15 16 17 18 19 20 21 22
000
FTUS41 KGYX 220918 AAB
TAFCON
TAF AMD
KCON 220918Z 2209/2306 VRB03KT P6SM BKN045
     FM221300 27012G20KT P6SM BKN050
     FM230000 30006KT P6SM SCT050=

USA.gov is the U.S. government's official web portal to all federal, state and local government web resources and services.